Time;durP1;ratioP1;P1;durP2;ratioP2;P2;SDS_P1;SDS_P2;PMS_P1;PMS_P2;Temp;Humidity;BMP_temperature;BMP_pressure;BME280_temperature;BME280_humidity;BME280_pressure;Samples;Min_cycle;Max_cycle;Signal;HPM_P1;HPM_P2
2022/08/24 00:01:04;;;;;;;;;;;;;;;24.36;56.63;100544.19;4424602;32;19968;-68
2022/08/24 00:03:29;;;;;;;;;;;;;;;24.27;56.59;100541.66;4425054;32;20291;-68
2022/08/24 00:05:55;;;;;;;;;;;;;;;24.21;57.13;100549.56;4423226;32;19953;-69
2022/08/24 00:08:21;;;;;;;;;;;;;;;24.20;56.95;100539.38;4421061;32;19984;-68
2022/08/24 00:10:47;;;;;;;;;;;;;;;24.19;57.13;100534.16;4424171;32;20602;-68
2022/08/24 00:13:12;;;;;;;;;;;;;;;24.11;57.12;100541.84;4423745;32;19956;-68
2022/08/24 00:15:39;;;;;;;;;;;;;;;24.15;57.01;100540.25;4423500;32;20109;-68
2022/08/24 00:18:05;;;;;;;;;;;;;;;24.16;56.98;100527.41;4421828;32;20335;-69
2022/08/24 00:20:30;;;;;;;;;;;;;;;24.21;57.01;100525.78;4421853;32;19996;-68
2022/08/24 00:22:56;;;;;;;;;;;;;;;24.20;57.11;100538.63;4423931;32;20371;-68
2022/08/24 00:25:22;;;;;;;;;;;;;;;24.15;56.87;100536.56;4422599;32;20550;-69
2022/08/24 00:27:48;;;;;;;;;;;;;;;24.17;56.72;100531.84;4422995;32;20390;-68
2022/08/24 00:30:15;;;;;;;;;;;;;;;23.97;57.66;100537.25;4420970;32;20003;-69
2022/08/24 00:32:42;;;;;;;;;;;;;;;24.09;57.44;100535.84;4423659;32;20297;-68
2022/08/24 00:35:08;;;;;;;;;;;;;;;24.12;57.19;100526.94;4425156;32;20330;-68
2022/08/24 00:37:34;;;;;;;;;;;;;;;24.14;57.08;100520.66;4423729;32;19958;-68
2022/08/24 00:40:00;;;;;;;;;;;;;;;24.05;57.39;100524.63;4423099;32;19964;-68
2022/08/24 00:42:25;;;;;;;;;;;;;;;24.13;56.96;100524.81;4424599;32;19999;-68
2022/08/24 00:44:51;;;;;;;;;;;;;;;24.03;57.34;100533.03;4426619;32;20052;-68
2022/08/24 00:47:26;;;;;;;;;;;;;;;23.94;57.71;100538.31;4424449;32;20350;-68
2022/08/24 00:52:30;;;;;;;;;;;;;;;24.31;57.14;100532.75;3945822;32;15974533;-69
2022/08/24 00:54:59;;;;;;;;;;;;;;;24.31;57.14;100532.75;4436473;32;19964;-69
2022/08/24 00:57:28;;;;;;;;;;;;;;;23.82;58.29;100523.25;4436763;32;20413;-68
2022/08/24 00:59:57;;;;;;;;;;;;;;;23.84;58.15;100525.59;4435218;32;19990;-68
2022/08/24 01:02:25;;;;;;;;;;;;;;;23.89;58.26;100519.78;4436231;32;19966;-68
2022/08/24 01:04:53;;;;;;;;;;;;;;;23.78;58.33;100514.16;4437876;32;20453;-68
2022/08/24 01:07:21;;;;;;;;;;;;;;;23.80;58.49;100510.75;4435581;32;19964;-68
2022/08/24 01:09:48;;;;;;;;;;;;;;;23.76;58.79;100513.12;4433238;32;19977;-68
2022/08/24 01:12:15;;;;;;;;;;;;;;;23.77;58.81;100509.72;4437832;32;20432;-68
2022/08/24 01:14:41;;;;;;;;;;;;;;;23.79;58.81;100518.59;4435970;32;19969;-68
2022/08/24 01:19:54;;;;;;;;;;;;;;;23.97;58.43;100500.69;4433425;32;20458;-68
2022/08/24 01:22:40;;;;;;;;;;;;;;;23.85;58.73;100510.69;4425261;32;20012;-68
2022/08/24 01:25:05;;;;;;;;;;;;;;;23.95;58.63;100511.94;4437393;32;20030;-68
2022/08/24 01:27:32;;;;;;;;;;;;;;;24.07;58.20;100509.72;4434901;32;19977;-68
2022/08/24 01:30:00;;;;;;;;;;;;;;;24.15;58.25;100505.72;4434816;32;20027;-68
2022/08/24 01:32:26;;;;;;;;;;;;;;;24.26;57.84;100511.34;4435600;32;20342;-68
2022/08/24 01:34:52;;;;;;;;;;;;;;;24.25;57.60;100509.00;4436053;32;20035;-67
2022/08/24 01:37:18;;;;;;;;;;;;;;;24.36;57.43;100511.78;4435566;32;19989;-68
2022/08/24 01:39:44;;;;;;;;;;;;;;;24.29;57.38;100504.53;4434296;32;19953;-68
2022/08/24 01:42:12;;;;;;;;;;;;;;;24.40;57.03;100503.62;4435362;32;19972;-67
2022/08/24 01:44:38;;;;;;;;;;;;;;;24.29;57.58;100504.53;4435280;32;20027;-68
2022/08/24 01:47:05;;;;;;;;;;;;;;;24.32;57.37;100500.56;4437397;32;19949;-67
2022/08/24 01:49:31;;;;;;;;;;;;;;;24.19;57.81;100511.94;4434261;32;19963;-67
2022/08/24 01:51:56;;;;;;;;;;;;;;;24.03;58.13;100503.50;4436775;32;20416;-68
2022/08/24 01:54:22;;;;;;;;;;;;;;;24.12;57.91;100498.19;4435510;32;20005;-68
2022/08/24 01:56:48;;;;;;;;;;;;;;;24.26;57.63;100499.84;4434555;32;20007;-67
2022/08/24 01:59:14;;;;;;;;;;;;;;;24.24;57.64;100501.72;4435405;32;20318;-68
2022/08/24 02:01:43;;;;;;;;;;;;;;;24.13;57.85;100496.84;4436392;32;19984;-67
2022/08/24 02:04:09;;;;;;;;;;;;;;;24.24;57.61;100499.59;4424371;32;19976;-69
2022/08/24 02:06:35;;;;;;;;;;;;;;;24.22;57.62;100501.47;4424798;32;20273;-68
2022/08/24 02:09:02;;;;;;;;;;;;;;;24.34;57.40;100503.69;4423957;32;20603;-69
2022/08/24 02:11:27;;;;;;;;;;;;;;;24.38;57.32;100501.28;4424601;32;19957;-68
2022/08/24 02:13:53;;;;;;;;;;;;;;;24.36;57.01;100506.03;4425792;32;19991;-69
2022/08/24 02:16:19;;;;;;;;;;;;;;;24.38;57.25;100498.41;4424170;32;20053;-69
2022/08/24 02:18:45;;;;;;;;;;;;;;;24.46;56.96;100499.38;4424168;32;19965;-69
2022/08/24 02:21:11;;;;;;;;;;;;;;;24.31;56.89;100504.78;4424071;32;19960;-69
2022/08/24 02:23:39;;;;;;;;;;;;;;;24.29;57.26;100492.22;4424252;32;19987;-69
2022/08/24 02:26:05;;;;;;;;;;;;;;;24.36;56.95;100514.66;4423721;32;19999;-69
2022/08/24 02:28:31;;;;;;;;;;;;;;;24.20;57.74;100499.13;4423332;32;19968;-69
2022/08/24 02:30:57;;;;;;;;;;;;;;;24.23;57.59;100495.16;4423681;32;19988;-69
2022/08/24 02:33:23;;;;;;;;;;;;;;;24.24;57.53;100495.97;4426244;32;19949;-68
2022/08/24 02:35:49;;;;;;;;;;;;;;;24.23;57.46;100495.16;4425633;32;20375;-69
2022/08/24 02:38:15;;;;;;;;;;;;;;;24.29;57.22;100493.03;4424049;32;20057;-69
2022/08/24 02:40:40;;;;;;;;;;;;;;;24.16;57.36;100498.66;4423870;32;19989;-68
2022/08/24 02:43:05;;;;;;;;;;;;;;;24.02;57.87;100491.19;4426001;32;20315;-68
2022/08/24 02:45:32;;;;;;;;;;;;;;;24.09;57.75;100487.75;4425527;32;19989;-68
2022/08/24 02:47:57;;;;;;;;;;;;;;;23.80;58.48;100490.63;4424084;32;20011;-68
2022/08/24 02:50:24;;;;;;;;;;;;;;;23.88;58.32;100485.84;4424518;32;19954;-68
2022/08/24 02:52:50;;;;;;;;;;;;;;;23.71;58.73;100482.34;4426347;32;19945;-68
2022/08/24 02:55:17;;;;;;;;;;;;;;;23.84;58.61;100494.75;4425461;32;19971;-68
2022/08/24 02:57:43;;;;;;;;;;;;;;;23.93;58.50;100482.91;4422772;32;20107;-68
2022/08/24 03:00:14;;;;;;;;;;;;;;;23.96;58.29;100478.97;4424666;32;20265;-68
2022/08/24 03:02:40;;;;;;;;;;;;;;;24.04;58.13;100467.66;4413657;32;19964;-68
2022/08/24 03:05:07;;;;;;;;;;;;;;;23.98;58.32;100464.84;4424215;32;19989;-68
2022/08/24 03:07:36;;;;;;;;;;;;;;;24.04;58.30;100461.91;4423689;32;20356;-68
2022/08/24 03:10:03;;;;;;;;;;;;;;;24.11;57.95;100470.72;4423915;32;19997;-69
2022/08/24 03:12:29;;;;;;;;;;;;;;;24.12;57.79;100465.75;4426828;32;20278;-68
2022/08/24 03:14:55;;;;;;;;;;;;;;;23.95;58.50;100462.28;4425206;32;20123;-69
2022/08/24 03:17:20;;;;;;;;;;;;;;;23.91;58.52;100453.16;4422285;32;20003;-69
2022/08/24 03:19:46;;;;;;;;;;;;;;;23.92;58.41;100451.81;4421947;32;19995;-68
2022/08/24 03:22:12;;;;;;;;;;;;;;;23.78;58.73;100447.28;4423379;32;19997;-68
2022/08/24 03:24:37;;;;;;;;;;;;;;;23.87;58.61;100447.69;4424115;32;19996;-68
2022/08/24 03:27:03;;;;;;;;;;;;;;;23.73;59.27;100459.59;4424108;32;19949;-68
2022/08/24 03:29:29;;;;;;;;;;;;;;;23.72;59.40;100455.16;4422370;32;20386;-69
2022/08/24 03:31:56;;;;;;;;;;;;;;;23.73;59.62;100451.75;4423835;32;19966;-68
2022/08/24 03:34:21;;;;;;;;;;;;;;;23.63;59.61;100449.75;4424396;32;20262;-68
2022/08/24 03:36:47;;;;;;;;;;;;;;;23.66;59.77;100449.47;4423622;32;19979;-68
2022/08/24 03:39:13;;;;;;;;;;;;;;;23.69;59.76;100441.88;4423347;32;20012;-68
2022/08/24 03:41:39;;;;;;;;;;;;;;;23.69;59.84;100444.75;4425263;32;19968;-68
2022/08/24 03:44:04;;;;;;;;;;;;;;;23.79;59.60;100440.19;4423238;32;20338;-68
2022/08/24 03:46:35;;;;;;;;;;;;;;;23.87;59.29;100438.31;4423178;32;20031;-68
2022/08/24 03:49:01;;;;;;;;;;;;;;;23.66;59.92;100443.72;4422529;32;19996;-68
2022/08/24 03:51:27;;;;;;;;;;;;;;;23.67;59.99;100436.66;4422508;32;20012;-68
2022/08/24 03:53:53;;;;;;;;;;;;;;;23.77;59.47;100435.00;4425572;32;20347;-68
2022/08/24 03:56:19;;;;;;;;;;;;;;;23.85;59.41;100441.72;4422966;32;19973;-69
2022/08/24 03:58:46;;;;;;;;;;;;;;;23.87;59.50;100441.94;4423031;32;20317;-69
2022/08/24 04:01:11;;;;;;;;;;;;;;;23.79;59.52;100440.19;4424182;32;20030;-69
2022/08/24 04:03:39;;;;;;;;;;;;;;;23.77;59.80;100440.75;4421156;32;20090;-68
2022/08/24 04:06:06;;;;;;;;;;;;;;;23.83;59.58;100437.84;4423666;32;20343;-68
2022/08/24 04:08:31;;;;;;;;;;;;;;;23.79;59.79;100440.19;4422756;32;19989;-69
2022/08/24 04:10:57;;;;;;;;;;;;;;;23.79;59.84;100434.44;4422235;32;19995;-68
2022/08/24 04:13:23;;;;;;;;;;;;;;;23.61;60.39;100441.69;4424454;32;20362;-68
2022/08/24 04:15:51;;;;;;;;;;;;;;;23.65;60.39;100433.53;4424725;32;20062;-68
2022/08/24 04:18:18;;;;;;;;;;;;;;;23.55;60.82;100438.06;4424150;32;19989;-68
2022/08/24 04:20:43;;;;;;;;;;;;;;;23.71;60.59;100436.38;4422351;32;19989;-68
2022/08/24 04:23:10;;;;;;;;;;;;;;;23.70;60.58;100421.22;4424664;32;20001;-68
2022/08/24 04:25:39;;;;;;;;;;;;;;;23.64;60.81;100420.50;4422128;32;20457;-68
2022/08/24 04:28:05;;;;;;;;;;;;;;;23.56;61.39;100415.88;4420511;32;19978;-68
2022/08/24 04:30:31;;;;;;;;;;;;;;;23.61;60.93;100418.69;4423924;32;20000;-68
2022/08/24 04:32:57;;;;;;;;;;;;;;;23.68;60.91;100420.22;4424040;32;20418;-68
2022/08/24 04:35:22;;;;;;;;;;;;;;;23.64;61.53;100417.63;4422505;32;20031;-68
2022/08/24 04:37:48;;;;;;;;;;;;;;;23.63;61.67;100418.94;4424624;32;19960;-69
2022/08/24 04:40:14;;;;;;;;;;;;;;;23.70;61.48;100418.34;4422105;32;20348;-68
2022/08/24 04:42:39;;;;;;;;;;;;;;;23.66;61.30;100422.84;4423295;32;19997;-69
2022/08/24 04:45:05;;;;;;;;;;;;;;;23.62;62.13;100414.50;4420633;32;20416;-68
2022/08/24 04:47:30;;;;;;;;;;;;;;;23.64;62.26;100416.84;4424540;32;19997;-68
2022/08/24 04:49:56;;;;;;;;;;;;;;;23.58;62.37;100424.72;4420717;32;20126;-68
2022/08/24 04:52:23;;;;;;;;;;;;;;;23.64;62.24;100420.50;4423407;32;20044;-68
2022/08/24 04:54:48;;;;;;;;;;;;;;;23.74;62.27;100418.06;4423900;32;20211;-68
2022/08/24 04:57:13;;;;;;;;;;;;;;;23.77;62.34;100417.00;4421396;32;19953;-68
2022/08/24 04:59:40;;;;;;;;;;;;;;;23.60;63.26;100425.75;4419443;32;19964;-68
2022/08/24 05:02:05;;;;;;;;;;;;;;;23.52;63.59;100416.16;4423062;32;19965;-69
2022/08/24 05:04:31;;;;;;;;;;;;;;;23.49;64.24;100420.91;4422238;32;20058;-68
2022/08/24 05:06:56;;;;;;;;;;;;;;;23.59;64.10;100424.19;4423899;32;19945;-69
2022/08/24 05:09:22;;;;;;;;;;;;;;;23.68;63.84;100432.47;4420848;32;20418;-68
2022/08/24 05:11:47;;;;;;;;;;;;;;;23.88;63.29;100434.09;4423447;32;20259;-68
2022/08/24 05:14:13;;;;;;;;;;;;;;;23.77;63.62;100434.22;4422234;32;20513;-68
2022/08/24 05:16:39;;;;;;;;;;;;;;;23.89;63.58;100432.78;4423686;32;20023;-68
2022/08/24 05:19:05;;;;;;;;;;;;;;;23.86;63.81;100428.91;4422507;32;19960;-68
2022/08/24 05:21:31;;;;;;;;;;;;;;;23.68;64.44;100443.97;4419615;32;19978;-68
2022/08/24 05:23:57;;;;;;;;;;;;;;;23.76;64.28;100433.44;4423340;32;19957;-68
2022/08/24 05:26:24;;;;;;;;;;;;;;;23.73;64.59;100445.22;4424200;32;20061;-68
2022/08/24 05:28:52;;;;;;;;;;;;;;;23.69;64.81;100430.37;4421553;32;20260;-68
2022/08/24 05:31:19;;;;;;;;;;;;;;;23.71;64.66;100428.53;4420897;32;20272;-69
2022/08/24 05:33:45;;;;;;;;;;;;;;;23.73;64.84;100433.72;4423293;32;19988;-69
2022/08/24 05:36:19;;;;;;;;;;;;;;;23.63;65.15;100424.69;4423234;32;19985;-68
2022/08/24 05:38:46;;;;;;;;;;;;;;;23.64;65.10;100428.31;4424028;32;19961;-68
2022/08/24 05:41:12;;;;;;;;;;;;;;;23.75;64.71;100431.09;4424919;32;20016;-68
2022/08/24 05:43:38;;;;;;;;;;;;;;;23.61;65.38;100421.56;4426669;32;19956;-68
2022/08/24 05:46:05;;;;;;;;;;;;;;;23.68;64.84;100431.69;4425088;32;20007;-68
2022/08/24 05:48:34;;;;;;;;;;;;;;;23.57;65.70;100429.72;4423713;32;20373;-69
2022/08/24 05:51:00;;;;;;;;;;;;;;;23.59;65.42;100429.19;4425785;32;20000;-68
2022/08/24 05:53:26;;;;;;;;;;;;;;;23.50;65.89;100422.44;4425310;32;20397;-69
2022/08/24 05:55:52;;;;;;;;;;;;;;;23.60;65.55;100436.47;4426181;32;20360;-68
2022/08/24 05:58:17;;;;;;;;;;;;;;;23.60;66.02;100451.63;4425209;32;19949;-68
2022/08/24 06:00:44;;;;;;;;;;;;;;;23.64;66.22;100445.56;4422771;32;20038;-68
2022/08/24 06:03:11;;;;;;;;;;;;;;;23.40;67.75;100446.28;4425422;32;20000;-68
2022/08/24 06:05:40;;;;;;;;;;;;;;;23.18;68.95;100435.75;4425374;32;19949;-68
2022/08/24 06:08:06;;;;;;;;;;;;;;;22.83;70.48;100449.28;4425053;32;20041;-68
2022/08/24 06:10:37;;;;;;;;;;;;;;;22.66;71.44;100465.78;4423565;32;19993;-68
2022/08/24 06:13:04;;;;;;;;;;;;;;;22.77;71.55;100465.75;4426263;32;20016;-68
2022/08/24 06:15:29;;;;;;;;;;;;;;;22.69;71.66;100473.34;4426840;32;20033;-68
2022/08/24 06:17:55;;;;;;;;;;;;;;;22.54;72.25;100470.81;4424048;32;19953;-68
2022/08/24 06:20:21;;;;;;;;;;;;;;;22.82;71.62;100471.44;4423280;32;20000;-68
2022/08/24 06:22:46;;;;;;;;;;;;;;;22.79;71.51;100461.03;4424577;32;19990;-68
2022/08/24 06:27:58;;;;;;;;;;;;;;;23.07;70.16;100470.25;4422773;32;20109;-68
2022/08/24 06:30:24;;;;;;;;;;;;;;;23.28;69.44;100464.91;4423428;32;20445;-68
2022/08/24 06:32:49;;;;;;;;;;;;;;;23.32;69.15;100471.94;4423458;32;20335;-69
2022/08/24 06:35:15;;;;;;;;;;;;;;;23.56;68.65;100476.22;4424322;32;20015;-68
2022/08/24 06:37:40;;;;;;;;;;;;;;;23.54;68.37;100468.88;4423930;32;19953;-69
2022/08/24 06:40:06;;;;;;;;;;;;;;;23.51;67.67;100472.06;4423933;32;20050;-69
2022/08/24 06:42:33;;;;;;;;;;;;;;;23.61;67.64;100469.62;4411406;32;20468;-69
2022/08/24 06:44:58;;;;;;;;;;;;;;;23.67;67.18;100476.88;4424906;32;20263;-69
2022/08/24 06:47:24;;;;;;;;;;;;;;;23.82;66.73;100482.22;4424763;32;20208;-69
2022/08/24 06:49:49;;;;;;;;;;;;;;;23.97;66.14;100465.41;4421418;32;20003;-69
2022/08/24 06:52:15;;;;;;;;;;;;;;;24.16;65.49;100472.78;4421824;32;19962;-69
2022/08/24 06:54:41;;;;;;;;;;;;;;;24.11;65.10;100476.47;4423683;32;20026;-69
2022/08/24 06:57:06;;;;;;;;;;;;;;;24.19;64.58;100480.31;4422242;32;19963;-69
2022/08/24 06:59:32;;;;;;;;;;;;;;;24.23;64.43;100480.78;4423434;32;20004;-69
2022/08/24 07:01:58;;;;;;;;;;;;;;;24.26;64.29;100487.56;4425125;32;20298;-69
2022/08/24 07:04:25;;;;;;;;;;;;;;;24.45;63.49;100480.53;4423983;32;19973;-69
2022/08/24 07:06:51;;;;;;;;;;;;;;;24.44;63.39;100490.50;4424260;32;20367;-69
2022/08/24 07:09:17;;;;;;;;;;;;;;;24.67;62.64;100491.78;4422295;32;20085;-69
2022/08/24 07:11:43;;;;;;;;;;;;;;;24.67;62.66;100494.69;4421801;32;20291;-69
2022/08/24 07:14:08;;;;;;;;;;;;;;;24.58;62.71;100502.88;4423981;32;20001;-69
2022/08/24 07:16:34;;;;;;;;;;;;;;;24.72;62.06;100507.44;4424808;32;19964;-69
2022/08/24 07:19:01;;;;;;;;;;;;;;;24.85;61.92;100499.69;4422787;32;20007;-68
2022/08/24 07:21:27;;;;;;;;;;;;;;;24.92;61.62;100513.47;4422378;32;19957;-69
2022/08/24 07:23:54;;;;;;;;;;;;;;;25.21;60.60;100509.66;4424134;32;20319;-69
2022/08/24 07:26:21;;;;;;;;;;;;;;;25.24;60.22;100516.41;4424030;32;19996;-69
2022/08/24 07:28:49;;;;;;;;;;;;;;;25.15;60.50;100522.56;4423154;32;19975;-69
2022/08/24 07:31:15;;;;;;;;;;;;;;;25.16;60.28;100513.38;4421419;32;19961;-69
2022/08/24 07:33:40;;;;;;;;;;;;;;;25.35;59.81;100527.81;4423736;32;20432;-69
2022/08/24 07:36:06;;;;;;;;;;;;;;;25.25;59.96;100527.38;4425619;32;20286;-69
2022/08/24 07:38:32;;;;;;;;;;;;;;;25.07;60.52;100533.91;4416714;32;20042;-69
2022/08/24 07:40:59;;;;;;;;;;;;;;;25.14;60.16;100529.66;4415143;32;19953;-69
2022/08/24 07:43:24;;;;;;;;;;;;;;;25.27;59.75;100535.47;4423169;32;19971;-69
2022/08/24 07:45:50;;;;;;;;;;;;;;;25.31;59.65;100556.91;4420326;32;20465;-69
2022/08/24 07:48:16;;;;;;;;;;;;;;;25.53;58.99;100547.19;4422217;32;19966;-69
2022/08/24 07:50:42;;;;;;;;;;;;;;;25.38;59.41;100541.13;4421053;32;20007;-69
2022/08/24 07:53:08;;;;;;;;;;;;;;;25.33;59.33;100545.66;4421230;32;20050;-69
2022/08/24 07:55:33;;;;;;;;;;;;;;;25.38;59.29;100553.41;4419588;32;20045;-69
2022/08/24 07:57:59;;;;;;;;;;;;;;;25.31;59.49;100548.28;4421918;32;20034;-69
2022/08/24 08:00:25;;;;;;;;;;;;;;;25.28;59.61;100542.81;4423440;32;19961;-69
2022/08/24 08:02:50;;;;;;;;;;;;;;;25.30;59.63;100548.78;4422893;32;19997;-69
2022/08/24 08:05:21;;;;;;;;;;;;;;;25.22;59.89;100547.88;4420998;32;20109;-69
2022/08/24 08:07:48;;;;;;;;;;;;;;;25.50;59.15;100556.94;4422818;32;20006;-69
2022/08/24 08:10:13;;;;;;;;;;;;;;;25.64;58.79;100555.66;4419734;32;20550;-69
2022/08/24 08:12:39;;;;;;;;;;;;;;;25.60;58.81;100555.19;4417089;32;20056;-69
2022/08/24 08:15:07;;;;;;;;;;;;;;;25.75;58.15;100554.69;4419212;32;20442;-69
2022/08/24 08:17:33;;;;;;;;;;;;;;;26.02;57.39;100556.38;4418222;32;19996;-69
2022/08/24 08:19:59;;;;;;;;;;;;;;;25.89;57.57;100557.06;4418885;32;19985;-69
2022/08/24 08:25:10;;;;;;;;;;;;;;;26.11;57.59;100562.47;4422425;32;19969;-69
2022/08/24 08:27:36;;;;;;;;;;;;;;;25.93;58.94;100565.41;4422968;32;20269;-69
2022/08/24 08:30:05;;;;;;;;;;;;;;;26.12;58.98;100561.16;4421013;32;20003;-69
2022/08/24 08:32:30;;;;;;;;;;;;;;;26.23;58.63;100568.84;4423375;32;20012;-69
2022/08/24 08:34:56;;;;;;;;;;;;;;;26.41;57.73;100577.41;4421464;32;20021;-68
2022/08/24 08:37:22;;;;;;;;;;;;;;;26.27;57.96;100572.19;4422954;32;19999;-69
2022/08/24 08:39:47;;;;;;;;;;;;;;;26.22;58.02;100582.50;4420105;32;20033;-69
2022/08/24 08:47:50;;;;;;;;;;;;;;;27.02;56.34;100582.00;3951546;32;15722684;-70
2022/08/24 08:50:20;;;;;;;;;;;;;;;27.02;56.34;100582.00;4425762;32;20061;-70
2022/08/24 08:55:29;;;;;;;;;;;;;;;26.22;57.71;100614.22;3952376;32;15723589;-70
2022/08/24 09:00:47;;;;;;;;;;;;;;;25.87;57.17;100607.97;3951597;32;15724601;-70
2022/08/24 09:03:25;;;;;;;;;;;;;;;25.87;57.17;100607.97;4422744;32;19973;-70
2022/08/24 09:06:11;;;;;;;;;;;;;;;25.91;56.38;100605.53;4422436;32;20008;-70
2022/08/24 09:14:09;;;;;;;;;;;;;;;27.26;50.87;100625.12;3953270;32;15728901;-70
2022/08/24 09:22:10;;;;;;;;;;;;;;;26.80;50.17;100631.56;3950327;32;15723253;-70
2022/08/24 09:29:58;;;;;;;;;;;;;;;26.47;50.83;100621.38;3952129;32;15723371;-68
2022/08/24 09:32:33;;;;;;;;;;;;;;;26.17;51.48;100634.53;4436739;32;20435;-68
2022/08/24 09:35:01;;;;;;;;;;;;;;;26.26;52.19;100631.22;4435967;32;20035;-68
2022/08/24 09:37:47;;;;;;;;;;;;;;;26.22;52.00;100628.66;4433056;32;20306;-68
2022/08/24 09:40:32;;;;;;;;;;;;;;;25.98;52.75;100631.66;4433613;32;19952;-68
2022/08/24 09:43:17;;;;;;;;;;;;;;;26.33;51.86;100619.81;4432037;32;19990;-68
2022/08/24 09:51:19;;;;;;;;;;;;;;;26.90;48.74;100629.78;3965419;31;15724000;-69
2022/08/24 09:54:05;;;;;;;;;;;;;;;26.83;48.67;100628.34;4438417;32;20290;-69
2022/08/24 09:59:18;;;;;;;;;;;;;;;27.41;47.95;100639.78;3950621;32;15726582;-70
2022/08/24 10:04:42;;;;;;;;;;;;;;;28.19;46.12;100642.44;3940890;32;15723325;-69
2022/08/24 10:09:56;;;;;;;;;;;;;;;28.20;45.84;100646.91;3947628;32;15724340;-70
2022/08/24 10:15:09;;;;;;;;;;;;;;;29.23;42.33;100651.81;3950996;32;15727555;-70
2022/08/24 10:20:22;;;;;;;;;;;;;;;29.49;42.03;100663.94;3929989;32;15725480;-70
2022/08/24 10:23:07;;;;;;;;;;;;;;;29.49;42.03;100663.94;4414837;32;20227;-70
2022/08/24 10:28:36;;;;;;;;;;;;;;;29.09;42.84;100656.94;3952401;32;15722617;-69
2022/08/24 10:31:04;;;;;;;;;;;;;;;29.09;42.84;100656.94;4421239;32;19953;-70
2022/08/24 10:33:50;;;;;;;;;;;;;;;29.03;42.05;100679.47;4424580;32;20407;-70
2022/08/24 10:47:11;;;;;;;;;;;;;;;29.15;41.69;100662.56;3952827;32;15725319;-70
2022/08/24 10:55:09;;;;;;;;;;;;;;;30.88;38.53;100675.50;3952209;32;15723228;-70
2022/08/24 10:57:42;;;;;;;;;;;;;;;30.88;38.53;100675.50;4435522;32;20109;-70
2022/08/24 11:00:13;;;;;;;;;;;;;;;30.85;37.82;100679.59;4433684;32;20001;-70
2022/08/24 11:02:41;;;;;;;;;;;;;;;30.66;38.20;100671.25;4436307;32;20401;-70
2022/08/24 11:05:08;;;;;;;;;;;;;;;30.58;38.50;100672.56;4434812;32;20339;-70
2022/08/24 11:07:34;;;;;;;;;;;;;;;30.10;39.50;100682.38;4435538;32;20310;-70
2022/08/24 11:10:03;;;;;;;;;;;;;;;30.44;38.63;100682.84;4436533;32;20358;-70
2022/08/24 11:12:30;;;;;;;;;;;;;;;31.22;36.93;100695.41;4434060;32;19953;-70
2022/08/24 11:14:59;;;;;;;;;;;;;;;31.59;36.27;100680.81;4433795;32;19994;-70
2022/08/24 11:17:25;;;;;;;;;;;;;;;31.85;36.04;100680.34;4433126;32;19990;-70
2022/08/24 11:19:52;;;;;;;;;;;;;;;31.78;35.73;100686.19;4433564;32;20631;-70
2022/08/24 11:25:03;;;;;;;;;;;;;;;31.90;35.87;100696.81;3941225;32;15722449;-70
2022/08/24 11:27:33;;;;;;;;;;;;;;;31.90;35.87;100696.81;4419010;32;20102;-70
2022/08/24 11:30:02;;;;;;;;;;;;;;;31.68;36.41;100694.75;4421350;32;19957;-70
2022/08/24 11:35:05;;;;;;;;;;;;;;;32.23;35.76;100703.41;3951216;32;15749588;-70
2022/08/24 11:37:32;;;;;;;;;;;;;;;32.23;35.76;100703.41;4433902;32;19963;-69
2022/08/24 11:39:58;;;;;;;;;;;;;;;31.83;35.71;100703.44;4434190;32;20346;-69
2022/08/24 11:42:44;;;;;;;;;;;;;;;32.25;35.38;100698.56;4434792;32;20357;-69
2022/08/24 11:45:29;;;;;;;;;;;;;;;32.73;34.01;100698.44;4435582;32;20019;-69
2022/08/24 11:53:17;;;;;;;;;;;;;;;34.32;30.50;100708.56;3952270;32;15725596;-68
2022/08/24 12:03:52;;;;;;;;;;;;;;;33.81;31.25;100684.50;3951853;32;15722520;-70
2022/08/24 12:09:00;;;;;;;;;;;;;;;34.57;30.37;100693.78;3953364;32;15725654;-70
2022/08/24 12:11:45;;;;;;;;;;;;;;;34.57;30.37;100693.78;4428805;32;19972;-70
2022/08/24 12:16:58;;;;;;;;;;;;;;;34.23;30.42;100673.44;3928119;32;15738592;-70
2022/08/24 12:19:29;;;;;;;;;;;;;;;34.23;30.42;100673.44;4402122;32;19998;-70
2022/08/24 12:21:57;;;;;;;;;;;;;;;33.87;30.69;100676.28;4402786;32;19949;-70
2022/08/24 12:24:28;;;;;;;;;;;;;;;34.13;30.46;100669.69;4402234;32;20025;-70
2022/08/24 12:26:59;;;;;;;;;;;;;;;34.45;30.27;100686.19;4404221;32;19968;-70
2022/08/24 12:32:04;;;;;;;;;;;;;;;34.91;28.84;100702.38;3951845;32;15725482;-70
2022/08/24 12:39:53;;;;;;;;;;;;;;;33.45;31.34;100704.78;3951757;32;15722604;-71
2022/08/24 12:42:31;;;;;;;;;;;;;;;33.45;31.34;100704.78;4434965;32;19998;-68
2022/08/24 12:44:59;;;;;;;;;;;;;;;33.08;31.67;100705.94;4435316;32;19978;-71
2022/08/24 12:47:28;;;;;;;;;;;;;;;32.70;32.00;100714.22;4433236;32;20276;-70
2022/08/24 12:50:00;;;;;;;;;;;;;;;33.20;31.33;100706.97;4432831;32;20003;-70
2022/08/24 12:55:24;;;;;;;;;;;;;;;33.85;30.66;100714.81;3950663;32;15722241;-71
2022/08/24 13:00:35;;;;;;;;;;;;;;;32.82;32.29;100713.12;3951012;32;15723422;-71
2022/08/24 13:03:03;;;;;;;;;;;;;;;32.82;32.29;100713.12;4422615;32;20386;-70
2022/08/24 13:05:47;;;;;;;;;;;;;;;32.68;32.22;100724.28;4425490;32;20146;-70
2022/08/24 13:08:19;;;;;;;;;;;;;;;32.47;32.81;100718.06;4426280;32;20260;-70
2022/08/24 13:11:02;;;;;;;;;;;;;;;32.59;32.52;100724.97;4428616;32;20006;-70
2022/08/24 13:13:48;;;;;;;;;;;;;;;32.16;33.26;100713.75;4426897;32;19953;-70
2022/08/24 13:16:33;;;;;;;;;;;;;;;32.87;31.88;100711.34;4411508;32;19962;-70
2022/08/24 13:19:19;;;;;;;;;;;;;;;33.03;31.59;100715.69;4426139;32;20605;-69
2022/08/24 13:21:47;;;;;;;;;;;;;;;33.12;30.80;100724.53;4427325;32;20111;-68
2022/08/24 13:30:06;;;;;;;;;;;;;;;33.01;31.32;100724.28;3967173;31;15716533;-70
2022/08/24 13:32:37;;;;;;;;;;;;;;;32.05;32.15;100736.72;4450078;32;20306;-70
2022/08/24 13:35:23;;;;;;;;;;;;;;;32.01;32.44;100716.75;4450851;32;20432;-70
2022/08/24 13:38:08;;;;;;;;;;;;;;;32.68;31.64;100726.47;4441137;32;19965;-70
2022/08/24 13:40:44;;;;;;;;;;;;;;;33.92;29.86;100728.56;4451113;32;20382;-70
2022/08/24 13:46:00;;;;;;;;;;;;;;;34.13;29.29;100751.47;3951819;32;15723176;-70
2022/08/24 13:59:03;;;;;;;;;;;;;;;36.16;26.81;100759.72;3967642;31;15714793;-70
2022/08/24 14:06:59;;;;;;;;;;;;;;;35.01;28.27;100755.84;3957987;32;15729575;-71
2022/08/24 14:15:07;;;;;;;;;;;;;;;37.86;24.44;100751.56;3951919;32;15727581;-69
2022/08/24 14:20:28;;;;;;;;;;;;;;;37.00;25.71;100759.37;3950613;32;15722376;-69
2022/08/24 14:25:34;;;;;;;;;;;;;;;35.75;26.88;100738.31;3953436;32;15724566;-70
2022/08/24 14:30:38;;;;;;;;;;;;;;;34.35;29.00;100745.31;3941156;32;15716690;-70
2022/08/24 14:33:10;;;;;;;;;;;;;;;33.39;30.29;100748.03;4414288;32;19946;-70
2022/08/24 14:38:26;;;;;;;;;;;;;;;32.88;31.63;100748.66;3950504;32;15723641;-69
2022/08/24 14:40:57;;;;;;;;;;;;;;;32.88;31.63;100748.66;4434269;32;20000;-70
2022/08/24 14:48:51;;;;;;;;;;;;;;;31.81;33.44;100749.81;3951590;32;15723377;-70
2022/08/24 14:51:36;;;;;;;;;;;;;;;31.39;34.07;100756.69;4429978;32;20020;-70
2022/08/24 14:54:21;;;;;;;;;;;;;;;31.13;34.60;100754.19;4429292;32;19990;-70
2022/08/24 15:05:15;;;;;;;;;;;;;;;31.35;34.99;100754.16;3952897;32;15724013;-70
2022/08/24 15:07:50;;;;;;;;;;;;;;;31.35;34.99;100754.16;4437150;32;19949;-69
2022/08/24 15:10:23;;;;;;;;;;;;;;;31.17;35.08;100754.56;4437179;32;19997;-69
2022/08/24 15:12:52;;;;;;;;;;;;;;;31.43;34.54;100743.31;4435452;32;20330;-69
2022/08/24 15:15:25;;;;;;;;;;;;;;;32.08;33.47;100745.03;4433438;32;20011;-69
2022/08/24 15:23:12;;;;;;;;;;;;;;;32.58;32.99;100764.22;3952132;32;15724589;-70
2022/08/24 15:25:58;;;;;;;;;;;;;;;32.58;32.99;100764.22;4434021;32;19988;-70
2022/08/24 15:28:25;;;;;;;;;;;;;;;32.06;33.58;100755.75;4432428;32;19981;-70
2022/08/24 15:31:01;;;;;;;;;;;;;;;32.60;32.95;100749.81;4431838;32;20001;-70
2022/08/24 15:33:28;;;;;;;;;;;;;;;32.67;32.81;100749.00;4430153;32;19999;-70